Time;durP1;ratioP1;P1;durP2;ratioP2;P2;SDS_P1;SDS_P2;PMS_P1;PMS_P2;Temp;Humidity;BMP_temperature;BMP_pressure;BME280_temperature;BME280_humidity;BME280_pressure;Samples;Min_cycle;Max_cycle;Signal;HPM_P1;HPM_P2
2022/03/25 00:00:25;;;;;;;124.25;62.30;;;;;;;;;;5071299;28;20086;-61
2022/03/25 00:02:51;;;;;;;125.85;61.97;;;;;;;;;;5055510;28;20081;-60
2022/03/25 00:05:17;;;;;;;123.13;62.33;;;;;;;;;;5056704;28;20116;-60
2022/03/25 00:07:43;;;;;;;121.22;62.90;;;;;;;;;;5082871;28;20663;-61
2022/03/25 00:10:09;;;;;;;119.00;61.60;;;;;;;;;;5083076;28;20040;-61
2022/03/25 00:12:35;;;;;;;126.53;62.92;;;;;;;;;;5063915;28;20051;-61
2022/03/25 00:15:01;;;;;;;119.07;63.00;;;;;;;;;;5058766;28;20128;-60
2022/03/25 00:17:28;;;;;;;125.25;62.20;;;;;;;;;;5086093;28;20123;-60
2022/03/25 00:19:54;;;;;;;122.32;61.22;;;;;;;;;;5087885;28;20044;-61
2022/03/25 00:22:19;;;;;;;117.07;61.15;;;;;;;;;;5074650;28;20040;-60
2022/03/25 00:24:45;;;;;;;118.55;62.25;;;;;;;;;;5060751;28;20044;-60
2022/03/25 00:27:11;;;;;;;121.93;61.80;;;;;;;;;;5082758;28;20083;-61
2022/03/25 00:29:38;;;;;;;124.63;63.72;;;;;;;;;;5095301;28;20047;-61
2022/03/25 00:32:04;;;;;;;125.60;63.13;;;;;;;;;;5075586;28;20044;-61
2022/03/25 00:34:30;;;;;;;125.72;61.70;;;;;;;;;;5072899;28;20069;-60
2022/03/25 00:36:56;;;;;;;123.25;63.50;;;;;;;;;;5081338;28;20509;-61
2022/03/25 00:39:22;;;;;;;129.35;59.80;;;;;;;;;;5092454;28;20075;-60
2022/03/25 00:41:48;;;;;;;227.45;62.05;;;;;;;;;;5074047;28;20051;-60
2022/03/25 00:44:15;;;;;;;239.70;64.35;;;;;;;;;;5072832;28;20107;-60
2022/03/25 00:46:41;;;;;;;240.43;62.85;;;;;;;;;;5078650;28;20041;-60
2022/03/25 00:49:07;;;;;;;464.20;69.25;;;;;;;;;;5091546;28;20043;-61
2022/03/25 00:51:34;;;;;;;427.92;65.82;;;;;;;;;;5094672;28;20040;-60
2022/03/25 00:54:00;;;;;;;510.85;71.00;;;;;;;;;;5093263;28;20501;-60
2022/03/25 00:56:26;;;;;;;498.17;73.85;;;;;;;;;;5082800;28;20070;-61
2022/03/25 00:58:52;;;;;;;299.35;62.58;;;;;;;;;;5085335;28;20040;-60
2022/03/25 01:01:18;;;;;;;295.17;67.32;;;;;;;;;;5063208;28;20037;-60
2022/03/25 01:03:44;;;;;;;256.73;61.25;;;;;;;;;;5054135;28;20394;-61
2022/03/25 01:06:10;;;;;;;471.25;69.82;;;;;;;;;;5076688;28;20115;-61
2022/03/25 01:08:36;;;;;;;441.67;67.05;;;;;;;;;;5086497;28;20061;-61
2022/03/25 01:11:04;;;;;;;468.23;70.72;;;;;;;;;;5074629;28;20041;-60
2022/03/25 01:13:33;;;;;;;224.20;61.25;;;;;;;;;;5072519;28;20036;-60
2022/03/25 01:15:59;;;;;;;199.07;59.22;;;;;;;;;;5061950;28;20044;-60
2022/03/25 01:18:25;;;;;;;359.80;63.50;;;;;;;;;;5081589;28;20569;-60
2022/03/25 01:20:51;;;;;;;405.77;65.40;;;;;;;;;;5073372;28;20076;-60
2022/03/25 01:23:18;;;;;;;535.03;70.72;;;;;;;;;;5052187;28;20080;-60
2022/03/25 01:25:44;;;;;;;449.85;67.50;;;;;;;;;;5070593;28;20155;-60
2022/03/25 01:28:09;;;;;;;424.25;64.07;;;;;;;;;;5071895;28;20044;-60
2022/03/25 01:30:35;;;;;;;371.42;62.63;;;;;;;;;;5067664;28;20513;-60
2022/03/25 01:33:03;;;;;;;394.17;62.55;;;;;;;;;;5068818;28;20123;-61
2022/03/25 01:35:29;;;;;;;451.30;66.43;;;;;;;;;;5061199;28;20425;-61
2022/03/25 01:37:55;;;;;;;463.65;68.95;;;;;;;;;;5084397;28;20512;-60
2022/03/25 01:40:21;;;;;;;481.42;65.65;;;;;;;;;;5080710;28;20037;-60
2022/03/25 01:42:47;;;;;;;313.65;61.38;;;;;;;;;;5071075;28;20032;-61
2022/03/25 01:45:13;;;;;;;308.23;61.63;;;;;;;;;;5080872;28;20044;-60
2022/03/25 01:47:40;;;;;;;359.48;64.78;;;;;;;;;;5058249;28;20379;-60
2022/03/25 01:50:13;;;;;;;366.10;66.40;;;;;;;;;;5058344;28;20051;-61
2022/03/25 01:52:39;;;;;;;372.10;64.68;;;;;;;;;;5061847;28;20386;-61
2022/03/25 01:55:21;;;;;;;365.40;67.53;;;;;;;;;;5076478;28;20463;-61
2022/03/25 01:57:47;;;;;;;531.65;72.97;;;;;;;;;;5079261;28;20513;-60
2022/03/25 02:00:15;;;;;;;399.27;65.68;;;;;;;;;;5091735;28;20558;-61
2022/03/25 02:02:43;;;;;;;389.83;68.07;;;;;;;;;;5069681;28;20068;-60
2022/03/25 02:05:09;;;;;;;297.60;64.55;;;;;;;;;;5082866;28;20039;-61
2022/03/25 02:07:35;;;;;;;333.48;63.22;;;;;;;;;;5075029;28;20353;-61
2022/03/25 02:10:01;;;;;;;327.02;64.65;;;;;;;;;;5071570;28;20041;-60
2022/03/25 02:12:28;;;;;;;291.05;63.15;;;;;;;;;;5072221;28;20048;-60
2022/03/25 02:14:57;;;;;;;576.10;77.35;;;;;;;;;;5064514;28;20040;-61
2022/03/25 02:17:23;;;;;;;417.60;69.40;;;;;;;;;;5069516;28;20064;-60
2022/03/25 02:19:49;;;;;;;381.50;68.50;;;;;;;;;;5078946;28;20040;-61
2022/03/25 02:22:16;;;;;;;351.27;66.10;;;;;;;;;;5090978;28;20515;-60
2022/03/25 02:24:42;;;;;;;343.50;66.13;;;;;;;;;;5087592;28;20045;-60
2022/03/25 02:27:08;;;;;;;573.10;78.35;;;;;;;;;;5071082;28;20078;-61
2022/03/25 02:29:34;;;;;;;351.45;66.25;;;;;;;;;;5072199;28;20565;-61
2022/03/25 02:32:00;;;;;;;296.25;63.50;;;;;;;;;;5070077;28;20214;-61
2022/03/25 02:34:26;;;;;;;316.40;64.30;;;;;;;;;;5071349;28;20516;-60
2022/03/25 02:36:52;;;;;;;346.02;65.30;;;;;;;;;;5072198;28;20093;-60
2022/03/25 02:39:18;;;;;;;405.67;69.63;;;;;;;;;;5065425;28;20052;-60
2022/03/25 02:41:44;;;;;;;370.55;65.93;;;;;;;;;;5078342;28;20406;-61
2022/03/25 02:44:11;;;;;;;375.98;62.65;;;;;;;;;;5074204;28;20111;-60
2022/03/25 02:46:37;;;;;;;254.90;62.53;;;;;;;;;;5070729;28;20733;-61
2022/03/25 02:49:03;;;;;;;418.80;66.85;;;;;;;;;;5069753;28;20040;-61
2022/03/25 02:51:29;;;;;;;335.20;61.97;;;;;;;;;;5071928;28;20037;-61
2022/03/25 02:53:56;;;;;;;589.03;76.90;;;;;;;;;;5066824;28;20218;-61
2022/03/25 02:56:22;;;;;;;319.63;63.67;;;;;;;;;;5081120;28;20055;-60
2022/03/25 02:58:48;;;;;;;450.23;68.90;;;;;;;;;;5070219;28;20051;-61
2022/03/25 03:01:14;;;;;;;295.30;63.95;;;;;;;;;;5069772;28;20045;-60
2022/03/25 03:03:40;;;;;;;489.20;71.75;;;;;;;;;;5071351;28;20371;-60
2022/03/25 03:06:07;;;;;;;331.92;63.45;;;;;;;;;;5071121;28;20040;-61
2022/03/25 03:08:35;;;;;;;310.60;63.80;;;;;;;;;;5058060;28;20036;-61
2022/03/25 03:11:01;;;;;;;229.18;59.33;;;;;;;;;;5057579;28;20047;-61
2022/03/25 03:13:27;;;;;;;503.83;69.90;;;;;;;;;;5082663;28;20043;-60
2022/03/25 03:15:53;;;;;;;351.30;63.75;;;;;;;;;;5087214;28;20501;-60
2022/03/25 03:18:20;;;;;;;290.13;60.47;;;;;;;;;;5091088;28;20112;-60
2022/03/25 03:20:46;;;;;;;308.48;60.67;;;;;;;;;;5076508;28;20045;-61
2022/03/25 03:23:12;;;;;;;435.20;64.07;;;;;;;;;;5085717;28;20044;-60
2022/03/25 03:25:38;;;;;;;450.40;65.95;;;;;;;;;;5070932;28;20033;-60
2022/03/25 03:28:04;;;;;;;220.55;60.17;;;;;;;;;;5071451;28;20040;-60
2022/03/25 03:30:31;;;;;;;178.90;56.60;;;;;;;;;;5060926;28;20126;-60
2022/03/25 03:33:04;;;;;;;518.60;66.78;;;;;;;;;;5076182;28;20039;-60
2022/03/25 03:35:30;;;;;;;237.65;54.35;;;;;;;;;;5051574;28;20049;-61
2022/03/25 03:37:56;;;;;;;555.92;67.78;;;;;;;;;;5061626;28;20079;-60
2022/03/25 03:40:22;;;;;;;439.70;62.65;;;;;;;;;;5069784;28;20429;-60
2022/03/25 03:42:48;;;;;;;424.85;61.20;;;;;;;;;;5078367;28;20040;-60
2022/03/25 03:45:16;;;;;;;477.02;63.30;;;;;;;;;;5081829;28;20079;-61
2022/03/25 03:47:42;;;;;;;333.25;55.15;;;;;;;;;;5085705;28;20042;-61
2022/03/25 03:50:09;;;;;;;493.85;63.42;;;;;;;;;;5075839;28;20504;-60
2022/03/25 03:52:36;;;;;;;350.60;54.88;;;;;;;;;;5077501;28;20040;-60
2022/03/25 03:55:03;;;;;;;305.23;55.75;;;;;;;;;;5075552;28;20098;-60
2022/03/25 03:57:29;;;;;;;393.92;58.70;;;;;;;;;;5064375;28;20395;-60
2022/03/25 03:59:55;;;;;;;517.90;64.93;;;;;;;;;;5075517;28;20064;-60
2022/03/25 04:02:21;;;;;;;273.60;54.58;;;;;;;;;;5078453;28;20089;-60
2022/03/25 04:04:47;;;;;;;445.67;60.08;;;;;;;;;;5089802;28;20032;-60
2022/03/25 04:07:15;;;;;;;353.33;57.03;;;;;;;;;;5089536;28;20132;-60
2022/03/25 04:09:41;;;;;;;244.98;53.75;;;;;;;;;;5059844;28;20157;-60
2022/03/25 04:12:09;;;;;;;352.27;56.25;;;;;;;;;;5082320;28;20043;-61
2022/03/25 04:14:35;;;;;;;308.45;54.20;;;;;;;;;;5087692;28;20063;-61
2022/03/25 04:17:01;;;;;;;280.38;51.55;;;;;;;;;;5086449;28;20499;-61
2022/03/25 04:19:27;;;;;;;293.30;51.80;;;;;;;;;;5073523;28;20047;-61
2022/03/25 04:21:54;;;;;;;305.05;51.47;;;;;;;;;;5076220;28;20054;-60
2022/03/25 04:24:20;;;;;;;217.65;49.17;;;;;;;;;;5089419;28;20130;-61
2022/03/25 04:26:45;;;;;;;375.52;52.33;;;;;;;;;;5095248;28;20067;-60
2022/03/25 04:29:12;;;;;;;266.42;49.72;;;;;;;;;;5094524;28;20043;-61
2022/03/25 04:31:38;;;;;;;250.13;48.72;;;;;;;;;;5078670;28;20046;-60
2022/03/25 04:34:04;;;;;;;266.00;48.08;;;;;;;;;;5085909;28;20040;-60
2022/03/25 04:36:30;;;;;;;231.73;46.15;;;;;;;;;;5085848;28;20390;-60
2022/03/25 04:38:57;;;;;;;294.08;49.20;;;;;;;;;;5061465;28;20037;-61
2022/03/25 04:41:23;;;;;;;280.27;46.13;;;;;;;;;;5062216;28;20489;-60
2022/03/25 04:43:51;;;;;;;332.00;49.72;;;;;;;;;;5081487;28;20093;-61
2022/03/25 04:46:18;;;;;;;207.00;46.13;;;;;;;;;;5072831;28;20062;-60
2022/03/25 04:48:44;;;;;;;278.92;50.42;;;;;;;;;;5068303;28;20067;-61
2022/03/25 04:51:10;;;;;;;317.90;50.42;;;;;;;;;;5079148;28;20040;-60
2022/03/25 04:53:36;;;;;;;232.30;45.40;;;;;;;;;;5070152;28;20044;-60
2022/03/25 04:56:02;;;;;;;399.35;51.67;;;;;;;;;;5072950;28;20124;-60
2022/03/25 04:58:28;;;;;;;196.57;45.50;;;;;;;;;;5082043;28;20036;-60
2022/03/25 05:00:55;;;;;;;330.80;49.08;;;;;;;;;;5073594;28;20047;-60
2022/03/25 05:03:21;;;;;;;199.98;46.97;;;;;;;;;;5083085;28;20053;-60
2022/03/25 05:05:48;;;;;;;327.63;51.13;;;;;;;;;;5079951;28;20028;-60
2022/03/25 05:08:14;;;;;;;334.35;48.38;;;;;;;;;;5087235;28;20036;-60
2022/03/25 05:10:41;;;;;;;280.65;48.22;;;;;;;;;;5058555;28;20037;-60
2022/03/25 05:13:08;;;;;;;316.52;49.05;;;;;;;;;;5053463;28;20044;-60
2022/03/25 05:15:34;;;;;;;381.52;50.97;;;;;;;;;;5062723;28;20118;-59
2022/03/25 05:18:00;;;;;;;321.73;50.22;;;;;;;;;;5081764;28;20044;-59
2022/03/25 05:20:26;;;;;;;153.68;45.42;;;;;;;;;;5080416;28;20043;-60
2022/03/25 05:22:53;;;;;;;331.95;48.63;;;;;;;;;;5072513;28;20048;-59
2022/03/25 05:25:19;;;;;;;227.63;47.42;;;;;;;;;;5067545;28;20549;-59
2022/03/25 05:27:45;;;;;;;162.77;43.67;;;;;;;;;;5078816;28;20081;-60
2022/03/25 05:30:12;;;;;;;217.60;47.72;;;;;;;;;;5075800;28;20040;-59
2022/03/25 05:32:39;;;;;;;207.40;45.65;;;;;;;;;;5072474;28;20105;-60
2022/03/25 05:35:06;;;;;;;223.77;46.25;;;;;;;;;;5072829;28;20052;-60
2022/03/25 05:37:32;;;;;;;236.75;47.92;;;;;;;;;;5080635;28;20037;-60
2022/03/25 05:39:58;;;;;;;259.80;49.75;;;;;;;;;;5071255;28;20086;-59
2022/03/25 05:42:25;;;;;;;240.13;48.28;;;;;;;;;;5053147;28;20049;-60
2022/03/25 05:44:51;;;;;;;169.13;46.40;;;;;;;;;;5071583;28;20036;-59
2022/03/25 05:47:17;;;;;;;209.27;48.03;;;;;;;;;;5092727;22;20052;-60
2022/03/25 05:49:43;;;;;;;223.88;50.28;;;;;;;;;;5074719;28;20036;-61
2022/03/25 05:52:09;;;;;;;182.10;48.53;;;;;;;;;;5082510;28;20036;-61
2022/03/25 05:54:35;;;;;;;202.00;46.42;;;;;;;;;;5082672;28;20042;-61
2022/03/25 05:57:01;;;;;;;297.13;52.00;;;;;;;;;;5081529;28;20047;-60
2022/03/25 05:59:27;;;;;;;183.13;45.47;;;;;;;;;;5072460;28;20033;-60
2022/03/25 06:01:53;;;;;;;184.95;47.90;;;;;;;;;;5072436;28;20037;-60
2022/03/25 06:04:20;;;;;;;149.32;47.38;;;;;;;;;;5074192;28;20047;-61
2022/03/25 06:06:47;;;;;;;211.57;50.75;;;;;;;;;;5084245;28;20039;-61
2022/03/25 06:09:13;;;;;;;161.13;48.45;;;;;;;;;;5063390;28;20036;-61
2022/03/25 06:11:39;;;;;;;164.75;48.80;;;;;;;;;;5072652;28;20048;-61
2022/03/25 06:14:05;;;;;;;158.32;48.22;;;;;;;;;;5071899;28;20133;-61
2022/03/25 06:16:31;;;;;;;138.23;48.38;;;;;;;;;;5082324;28;20451;-61
2022/03/25 06:18:57;;;;;;;171.57;47.72;;;;;;;;;;5072742;28;20037;-61
2022/03/25 06:21:42;;;;;;;141.98;46.90;;;;;;;;;;5072075;28;20047;-61
2022/03/25 06:24:11;;;;;;;139.95;47.55;;;;;;;;;;5049397;28;20072;-60
2022/03/25 06:26:38;;;;;;;129.05;46.55;;;;;;;;;;5071218;28;20411;-61
2022/03/25 06:29:04;;;;;;;176.30;46.10;;;;;;;;;;5073189;28;20032;-61
2022/03/25 06:31:30;;;;;;;178.00;46.45;;;;;;;;;;5081394;28;20400;-61
2022/03/25 06:33:56;;;;;;;152.55;46.38;;;;;;;;;;5068501;28;20032;-61
2022/03/25 06:36:22;;;;;;;118.10;45.08;;;;;;;;;;5069829;28;20032;-61
2022/03/25 06:38:48;;;;;;;134.27;45.45;;;;;;;;;;5080781;28;20028;-61
2022/03/25 06:41:14;;;;;;;197.60;45.55;;;;;;;;;;5073670;28;20123;-60
2022/03/25 06:43:40;;;;;;;128.02;43.95;;;;;;;;;;5079498;28;20537;-61
2022/03/25 06:46:06;;;;;;;204.15;45.22;;;;;;;;;;5065170;28;20040;-61
2022/03/25 06:48:32;;;;;;;193.88;47.10;;;;;;;;;;5074024;28;20032;-61
2022/03/25 06:50:59;;;;;;;121.82;43.92;;;;;;;;;;5077113;28;20102;-61
2022/03/25 06:53:26;;;;;;;152.50;45.78;;;;;;;;;;5061740;28;20044;-60
2022/03/25 06:55:52;;;;;;;146.35;47.25;;;;;;;;;;5080223;28;20044;-61
2022/03/25 06:58:18;;;;;;;120.10;47.67;;;;;;;;;;5071634;28;20303;-61
2022/03/25 07:00:44;;;;;;;114.82;48.65;;;;;;;;;;5069033;28;20036;-61
2022/03/25 07:03:11;;;;;;;105.63;50.38;;;;;;;;;;5071997;28;20110;-61
2022/03/25 07:05:37;;;;;;;95.80;50.08;;;;;;;;;;5066488;28;20440;-61
2022/03/25 07:08:03;;;;;;;98.03;49.22;;;;;;;;;;5070427;28;20398;-60
2022/03/25 07:10:30;;;;;;;100.80;48.45;;;;;;;;;;5071465;28;20141;-61
2022/03/25 07:12:56;;;;;;;98.47;49.65;;;;;;;;;;5058630;28;20047;-61
2022/03/25 07:15:23;;;;;;;96.50;49.55;;;;;;;;;;5070694;28;20044;-61
2022/03/25 07:17:50;;;;;;;100.80;51.08;;;;;;;;;;5076014;28;20051;-61
2022/03/25 07:20:17;;;;;;;99.03;50.35;;;;;;;;;;5060843;28;20478;-61
2022/03/25 07:22:47;;;;;;;103.88;49.65;;;;;;;;;;5066909;28;20045;-60
2022/03/25 07:25:13;;;;;;;106.93;48.72;;;;;;;;;;5069449;28;20044;-60
2022/03/25 07:27:39;;;;;;;99.30;50.67;;;;;;;;;;5071588;28;20044;-61
2022/03/25 07:30:06;;;;;;;100.93;48.67;;;;;;;;;;5070944;28;20082;-60
2022/03/25 07:32:32;;;;;;;94.20;46.47;;;;;;;;;;5056331;28;20505;-60
2022/03/25 07:34:58;;;;;;;95.95;48.63;;;;;;;;;;5061100;28;20068;-61
2022/03/25 07:37:24;;;;;;;101.80;48.42;;;;;;;;;;5070886;28;20044;-61
2022/03/25 07:39:50;;;;;;;99.82;49.35;;;;;;;;;;5069301;28;20093;-61
2022/03/25 07:42:16;;;;;;;96.28;48.10;;;;;;;;;;5058821;28;20044;-61
2022/03/25 07:44:42;;;;;;;92.85;49.75;;;;;;;;;;5075476;28;20044;-61
2022/03/25 07:47:10;;;;;;;92.53;43.63;;;;;;;;;;5083039;28;20098;-61
2022/03/25 07:49:38;;;;;;;93.97;42.67;;;;;;;;;;5088255;28;20040;-61
2022/03/25 07:52:04;;;;;;;84.88;40.90;;;;;;;;;;5071253;28;20048;-60
2022/03/25 07:54:30;;;;;;;91.45;43.53;;;;;;;;;;5067844;28;20038;-61
2022/03/25 07:56:58;;;;;;;82.78;41.25;;;;;;;;;;5074449;28;20036;-61
2022/03/25 07:59:25;;;;;;;86.55;42.88;;;;;;;;;;5064743;28;20048;-61
2022/03/25 08:01:52;;;;;;;87.15;40.30;;;;;;;;;;5071350;28;20041;-61
2022/03/25 08:04:18;;;;;;;85.75;42.33;;;;;;;;;;5072452;28;20040;-61
2022/03/25 08:06:45;;;;;;;81.55;42.60;;;;;;;;;;5082910;28;20024;-61
2022/03/25 08:09:12;;;;;;;83.43;42.17;;;;;;;;;;5082412;28;20098;-60
2022/03/25 08:11:39;;;;;;;77.45;39.22;;;;;;;;;;5071294;28;20036;-61
2022/03/25 08:14:06;;;;;;;78.60;41.38;;;;;;;;;;5070398;28;20032;-60
2022/03/25 08:16:32;;;;;;;79.90;41.92;;;;;;;;;;5082999;28;20036;-61
2022/03/25 08:18:58;;;;;;;74.03;38.22;;;;;;;;;;5090101;28;20131;-61
2022/03/25 08:21:24;;;;;;;81.50;40.80;;;;;;;;;;5091446;28;20542;-61
2022/03/25 08:29:22;;;;;;;70.20;35.35;;;;;;;;;;5066410;28;20647;-61
2022/03/25 08:31:48;;;;;;;72.90;39.38;;;;;;;;;;5070576;28;20040;-61
2022/03/25 08:34:15;;;;;;;78.90;39.92;;;;;;;;;;5063715;28;20542;-61
2022/03/25 08:36:41;;;;;;;75.15;38.33;;;;;;;;;;5062311;28;20047;-61
2022/03/25 08:39:07;;;;;;;70.25;36.40;;;;;;;;;;5063922;28;20508;-62
2022/03/25 08:41:34;;;;;;;67.78;37.13;;;;;;;;;;5074658;28;20060;-61
2022/03/25 08:44:00;;;;;;;68.40;36.13;;;;;;;;;;5070753;28;20479;-61
2022/03/25 08:46:25;;;;;;;67.15;35.80;;;;;;;;;;5078712;28;20107;-61
2022/03/25 08:48:52;;;;;;;65.63;35.50;;;;;;;;;;5087538;28;20154;-61
2022/03/25 08:51:18;;;;;;;66.45;33.60;;;;;;;;;;5089150;28;20048;-61
2022/03/25 08:53:45;;;;;;;64.32;34.15;;;;;;;;;;5066097;28;20116;-61
2022/03/25 08:56:12;;;;;;;66.78;33.55;;;;;;;;;;5073725;28;20410;-61
2022/03/25 08:58:39;;;;;;;62.03;32.17;;;;;;;;;;5075982;28;20054;-61
2022/03/25 09:01:05;;;;;;;63.47;31.20;;;;;;;;;;5086088;28;20071;-61
2022/03/25 09:03:31;;;;;;;63.42;32.22;;;;;;;;;;5076712;28;20161;-61
2022/03/25 09:05:57;;;;;;;63.40;33.72;;;;;;;;;;5058453;28;20044;-62
2022/03/25 09:08:23;;;;;;;57.83;32.70;;;;;;;;;;5068083;28;20047;-61
2022/03/25 09:10:49;;;;;;;60.22;31.23;;;;;;;;;;5071001;28;20116;-61
2022/03/25 09:13:15;;;;;;;60.90;31.95;;;;;;;;;;5086186;28;20040;-61
2022/03/25 09:15:41;;;;;;;57.22;31.15;;;;;;;;;;5083232;28;20037;-61
2022/03/25 09:18:07;;;;;;;62.65;33.22;;;;;;;;;;5065681;28;20067;-61
2022/03/25 09:20:33;;;;;;;57.92;32.13;;;;;;;;;;5088694;28;20115;-61
2022/03/25 09:22:59;;;;;;;65.43;32.80;;;;;;;;;;5083820;28;20044;-61
2022/03/25 09:25:25;;;;;;;58.83;32.33;;;;;;;;;;5058410;28;20039;-60
2022/03/25 09:27:51;;;;;;;63.33;31.73;;;;;;;;;;5068500;28;20074;-61
2022/03/25 09:30:17;;;;;;;62.10;31.48;;;;;;;;;;5081536;28;20068;-61
2022/03/25 09:32:44;;;;;;;60.22;31.15;;;;;;;;;;5063952;28;20116;-61
2022/03/25 09:35:10;;;;;;;60.85;33.28;;;;;;;;;;5071726;28;20044;-61
2022/03/25 09:37:36;;;;;;;63.65;32.63;;;;;;;;;;5064520;28;20040;-61
2022/03/25 09:40:03;;;;;;;59.55;33.30;;;;;;;;;;5078478;28;20047;-62
2022/03/25 09:42:29;;;;;;;65.43;34.28;;;;;;;;;;5072705;28;20052;-61
2022/03/25 09:44:56;;;;;;;60.75;31.95;;;;;;;;;;5060639;28;20029;-61
2022/03/25 09:47:22;;;;;;;59.65;32.33;;;;;;;;;;5091985;28;20036;-61
2022/03/25 09:49:48;;;;;;;57.35;31.52;;;;;;;;;;5081243;28;20506;-61
2022/03/25 09:52:15;;;;;;;61.55;34.05;;;;;;;;;;5061887;28;20171;-61
2022/03/25 09:54:41;;;;;;;61.88;34.35;;;;;;;;;;5070017;28;20045;-60
2022/03/25 09:57:07;;;;;;;64.70;34.45;;;;;;;;;;5061593;28;20048;-61
2022/03/25 09:59:33;;;;;;;61.67;34.33;;;;;;;;;;5069511;28;20094;-62
2022/03/25 10:01:59;;;;;;;60.20;32.63;;;;;;;;;;5070461;28;20044;-61
2022/03/25 10:04:44;;;;;;;60.28;33.28;;;;;;;;;;5068607;28;20394;-61
2022/03/25 10:07:20;;;;;;;62.63;32.75;;;;;;;;;;5079565;28;20032;-62
2022/03/25 10:09:48;;;;;;;60.58;30.08;;;;;;;;;;5076492;28;20161;-61
2022/03/25 10:12:23;;;;;;;64.97;34.22;;;;;;;;;;5073676;28;20036;-62
2022/03/25 10:14:49;;;;;;;56.90;32.67;;;;;;;;;;5081300;28;20040;-62
2022/03/25 10:17:16;;;;;;;57.95;31.67;;;;;;;;;;5084369;28;20043;-61
2022/03/25 10:19:52;;;;;;;59.40;31.98;;;;;;;;;;5076782;28;20044;-62
2022/03/25 10:22:19;;;;;;;55.70;27.38;;;;;;;;;;5070976;28;20071;-62
2022/03/25 10:24:49;;;;;;;61.15;31.95;;;;;;;;;;5074226;28;20047;-61
2022/03/25 10:27:25;;;;;;;56.95;29.90;;;;;;;;;;5070550;28;20033;-62
2022/03/25 10:29:54;;;;;;;55.08;29.27;;;;;;;;;;5076372;28;20032;-62
2022/03/25 10:32:24;;;;;;;53.78;27.30;;;;;;;;;;5080804;28;20059;-62
2022/03/25 10:35:06;;;;;;;54.43;28.60;;;;;;;;;;5073602;28;20151;-61
2022/03/25 10:37:33;;;;;;;54.95;30.02;;;;;;;;;;5065874;28;20106;-61
2022/03/25 10:39:59;;;;;;;54.80;30.80;;;;;;;;;;5084117;28;20044;-61
2022/03/25 10:42:25;;;;;;;54.55;30.15;;;;;;;;;;5080437;28;20036;-62
2022/03/25 10:44:51;;;;;;;52.33;27.67;;;;;;;;;;5072065;28;20039;-62
2022/03/25 10:47:17;;;;;;;54.30;28.00;;;;;;;;;;5069806;28;20060;-61
2022/03/25 10:49:46;;;;;;;47.08;26.58;;;;;;;;;;5069108;28;20082;-62
2022/03/25 10:52:23;;;;;;;49.90;27.15;;;;;;;;;;5075024;28;20129;-61
2022/03/25 10:54:50;;;;;;;50.65;26.77;;;;;;;;;;5080783;28;20413;-61
2022/03/25 10:57:17;;;;;;;51.67;23.50;;;;;;;;;;5070951;28;20071;-61
2022/03/25 10:59:43;;;;;;;51.70;26.90;;;;;;;;;;5067236;28;20132;-62
2022/03/25 11:02:11;;;;;;;51.72;27.48;;;;;;;;;;5079371;28;20075;-61
2022/03/25 11:04:38;;;;;;;46.08;23.52;;;;;;;;;;5075159;28;20128;-61
2022/03/25 11:07:04;;;;;;;48.97;24.00;;;;;;;;;;5069441;28;20040;-61
2022/03/25 11:09:31;;;;;;;46.85;25.52;;;;;;;;;;5077994;28;20039;-62
2022/03/25 11:11:59;;;;;;;46.80;25.45;;;;;;;;;;5066849;28;20037;-61
2022/03/25 11:14:25;;;;;;;45.88;23.90;;;;;;;;;;5079222;28;20050;-61
2022/03/25 11:16:54;;;;;;;46.03;24.83;;;;;;;;;;5070459;28;20401;-62
2022/03/25 11:19:20;;;;;;;45.50;23.48;;;;;;;;;;5073982;28;20054;-61
2022/03/25 11:21:47;;;;;;;47.70;23.75;;;;;;;;;;5075906;28;20045;-62
2022/03/25 11:24:31;;;;;;;43.65;22.05;;;;;;;;;;5073258;28;20041;-61
2022/03/25 11:26:58;;;;;;;46.33;23.80;;;;;;;;;;5065404;28;20037;-62
2022/03/25 11:29:30;;;;;;;43.50;24.45;;;;;;;;;;5064983;28;20041;-61
2022/03/25 11:32:12;;;;;;;50.05;23.40;;;;;;;;;;5078256;28;20033;-62
2022/03/25 11:35:07;;;;;;;48.55;24.90;;;;;;;;;;5070339;28;20147;-61
2022/03/25 11:37:34;;;;;;;43.72;23.73;;;;;;;;;;5062255;28;20086;-61
2022/03/25 11:40:16;;;;;;;44.78;23.35;;;;;;;;;;5069103;28;20037;-61
2022/03/25 11:42:46;;;;;;;46.45;24.05;;;;;;;;;;5074773;28;20049;-61
2022/03/25 11:45:21;;;;;;;48.45;24.83;;;;;;;;;;5069536;28;20033;-62
2022/03/25 11:48:05;;;;;;;47.67;26.10;;;;;;;;;;5085232;22;20032;-61
2022/03/25 11:50:38;;;;;;;48.13;25.98;;;;;;;;;;5063861;28;20055;-61
2022/03/25 11:53:13;;;;;;;46.97;24.85;;;;;;;;;;5070439;28;20041;-61
2022/03/25 11:56:00;;;;;;;47.55;25.05;;;;;;;;;;5080179;28;20043;-61
2022/03/25 11:58:27;;;;;;;44.85;25.20;;;;;;;;;;5068575;28;20423;-61
2022/03/25 12:00:55;;;;;;;49.60;25.52;;;;;;;;;;5048251;28;20029;-61
2022/03/25 12:03:21;;;;;;;45.42;22.65;;;;;;;;;;5042217;28;20048;-60
2022/03/25 12:06:00;;;;;;;45.45;24.73;;;;;;;;;;5059071;28;20029;-60
2022/03/25 12:08:28;;;;;;;49.50;25.08;;;;;;;;;;5067265;28;20505;-60
2022/03/25 12:10:54;;;;;;;44.33;23.88;;;;;;;;;;5057502;28;20098;-60
2022/03/25 12:13:21;;;;;;;46.50;24.92;;;;;;;;;;5059940;28;20041;-61
2022/03/25 12:15:47;;;;;;;45.28;22.73;;;;;;;;;;5065338;28;20078;-61
2022/03/25 12:18:32;;;;;;;40.20;22.63;;;;;;;;;;5063174;28;20091;-61
2022/03/25 12:20:58;;;;;;;49.72;24.58;;;;;;;;;;5049302;28;20099;-61
2022/03/25 12:23:24;;;;;;;49.58;23.92;;;;;;;;;;5063303;28;20072;-60
2022/03/25 12:25:50;;;;;;;48.35;24.42;;;;;;;;;;5065723;28;20033;-60
2022/03/25 12:28:23;;;;;;;46.78;24.05;;;;;;;;;;5051280;28;20037;-61
2022/03/25 12:30:50;;;;;;;41.15;21.15;;;;;;;;;;5054537;28;20068;-61
2022/03/25 12:33:19;;;;;;;38.35;21.90;;;;;;;;;;5055901;28;20557;-61
2022/03/25 12:35:45;;;;;;;39.95;19.42;;;;;;;;;;5051076;28;20037;-61
2022/03/25 12:38:24;;;;;;;39.78;20.55;;;;;;;;;;5040289;28;20139;-61
2022/03/25 12:40:53;;;;;;;38.92;19.88;;;;;;;;;;5048932;28;20517;-61
2022/03/25 12:43:19;;;;;;;35.08;18.25;;;;;;;;;;5062065;28;20045;-61
2022/03/25 12:45:47;;;;;;;34.88;18.23;;;;;;;;;;5065665;28;20036;-61
2022/03/25 12:48:16;;;;;;;42.95;20.42;;;;;;;;;;5054858;28;20056;-60
2022/03/25 12:50:43;;;;;;;38.90;18.98;;;;;;;;;;5049118;28;20037;-61
2022/03/25 12:53:10;;;;;;;41.22;20.70;;;;;;;;;;5054514;28;20037;-61
2022/03/25 12:55:36;;;;;;;37.22;18.92;;;;;;;;;;5060434;28;20040;-60
2022/03/25 12:58:03;;;;;;;43.00;21.60;;;;;;;;;;5045491;28;20412;-61
2022/03/25 13:00:37;;;;;;;37.15;20.00;;;;;;;;;;5046387;28;20494;-61
2022/03/25 13:03:04;;;;;;;35.05;18.38;;;;;;;;;;5060496;28;20040;-61
2022/03/25 13:05:31;;;;;;;36.85;18.83;;;;;;;;;;5057369;28;20128;-61
2022/03/25 13:07:57;;;;;;;39.92;18.63;;;;;;;;;;5043390;28;20430;-61
2022/03/25 13:10:23;;;;;;;37.20;19.05;;;;;;;;;;5052361;28;20045;-61
2022/03/25 13:12:53;;;;;;;40.05;20.42;;;;;;;;;;5055755;28;20033;-60
2022/03/25 13:15:29;;;;;;;34.75;19.23;;;;;;;;;;5052224;28;20044;-61
2022/03/25 13:17:57;;;;;;;34.45;17.27;;;;;;;;;;5051659;28;20483;-61
2022/03/25 13:20:26;;;;;;;31.63;17.25;;;;;;;;;;5049405;28;20047;-61
2022/03/25 13:22:53;;;;;;;36.20;18.70;;;;;;;;;;5048784;28;20049;-60
2022/03/25 13:25:24;;;;;;;35.88;19.80;;;;;;;;;;5039777;28;20029;-61
2022/03/25 13:27:50;;;;;;;37.45;20.38;;;;;;;;;;5040837;28;20057;-61
2022/03/25 13:30:16;;;;;;;42.28;19.00;;;;;;;;;;5051319;28;20120;-61
2022/03/25 13:32:42;;;;;;;36.85;19.50;;;;;;;;;;5054502;28;20116;-62
2022/03/25 13:35:10;;;;;;;34.50;19.05;;;;;;;;;;5050214;28;20044;-62
2022/03/25 13:37:40;;;;;;;36.17;19.95;;;;;;;;;;5048542;28;20063;-63
2022/03/25 13:40:26;;;;;;;35.58;20.30;;;;;;;;;;5061210;28;20056;-60
2022/03/25 13:42:55;;;;;;;40.28;20.23;;;;;;;;;;5034649;28;20054;-60
2022/03/25 13:45:22;;;;;;;33.50;17.92;;;;;;;;;;5057518;28;20044;-60
2022/03/25 13:48:14;;;;;;;32.40;17.67;;;;;;;;;;5050548;28;20037;-60
2022/03/25 13:50:53;;;;;;;30.95;17.33;;;;;;;;;;5066003;28;20113;-59
2022/03/25 13:53:33;;;;;;;35.67;18.17;;;;;;;;;;5067652;28;20044;-60
2022/03/25 13:56:08;;;;;;;29.83;15.57;;;;;;;;;;5067293;28;20178;-61
2022/03/25 13:58:34;;;;;;;33.67;14.70;;;;;;;;;;5057855;28;20033;-61
2022/03/25 14:01:00;;;;;;;27.73;14.65;;;;;;;;;;5051708;28;20063;-61
2022/03/25 14:03:30;;;;;;;24.80;10.75;;;;;;;;;;5052819;28;20048;-61
2022/03/25 14:06:08;;;;;;;28.42;11.57;;;;;;;;;;5052411;28;20048;-61
2022/03/25 14:08:34;;;;;;;20.83;10.23;;;;;;;;;;5053573;28;20029;-61
2022/03/25 14:11:00;;;;;;;23.92;11.48;;;;;;;;;;5053030;28;20072;-61
2022/03/25 14:13:26;;;;;;;21.13;8.88;;;;;;;;;;5052466;28;20048;-61
2022/03/25 14:15:52;;;;;;;22.25;9.52;;;;;;;;;;5057228;28;20041;-61
2022/03/25 14:18:20;;;;;;;23.27;10.05;;;;;;;;;;5065757;22;21017;-61